createdAt,value
2022-08-19T00:02:14.083Z,89.10
2022-08-19T00:04:41.405Z,89.00
2022-08-19T00:07:09.146Z,89.50
2022-08-19T00:09:36.391Z,89.80
2022-08-19T00:12:04.339Z,90.00
2022-08-19T00:14:35.536Z,90.00
2022-08-19T00:17:04.346Z,90.00
2022-08-19T00:19:32.024Z,90.00
2022-08-19T00:21:59.164Z,90.00
2022-08-19T00:24:28.170Z,90.00
2022-08-19T00:26:57.419Z,90.10
2022-08-19T00:29:44.797Z,90.00
2022-08-19T00:32:13.305Z,90.00
2022-08-19T00:34:41.059Z,90.10
2022-08-19T00:37:08.277Z,90.10
2022-08-19T00:39:35.605Z,90.00
2022-08-19T00:42:03.573Z,90.00
2022-08-19T00:44:31.441Z,90.20
2022-08-19T00:47:00.091Z,90.10
2022-08-19T00:49:57.387Z,90.10
2022-08-19T00:52:34.487Z,90.10
2022-08-19T00:55:06.000Z,90.00
2022-08-19T00:57:41.199Z,89.90
2022-08-19T01:00:14.535Z,90.10
2022-08-19T01:02:43.363Z,90.10
2022-08-19T01:05:22.298Z,90.20
2022-08-19T01:07:52.028Z,90.30
2022-08-19T01:10:25.352Z,90.30
2022-08-19T01:12:55.541Z,90.40
2022-08-19T01:15:31.135Z,90.40
2022-08-19T01:18:05.256Z,90.70
2022-08-19T01:20:32.461Z,90.50
2022-08-19T01:23:00.393Z,90.50
2022-08-19T01:25:46.689Z,90.70
2022-08-19T01:28:33.878Z,90.60
2022-08-19T01:31:27.226Z,90.80
2022-08-19T01:33:57.822Z,91.10
2022-08-19T01:36:35.195Z,90.80
2022-08-19T01:39:09.966Z,90.90
2022-08-19T01:41:37.565Z,90.90
2022-08-19T01:44:17.670Z,90.90
2022-08-19T01:46:49.194Z,90.90
2022-08-19T01:49:19.843Z,90.80
2022-08-19T01:51:47.899Z,90.90
2022-08-19T01:54:23.229Z,90.90
2022-08-19T01:57:02.858Z,90.90
2022-08-19T01:59:31.514Z,91.00
2022-08-19T02:01:58.737Z,91.00
2022-08-19T02:04:26.581Z,91.00
2022-08-19T02:06:53.748Z,91.10
2022-08-19T02:09:20.972Z,91.10
2022-08-19T02:11:48.179Z,91.10
2022-08-19T02:14:15.321Z,91.10
2022-08-19T02:16:42.468Z,91.20
2022-08-19T02:19:11.103Z,91.10
2022-08-19T02:21:38.567Z,91.10
2022-08-19T02:24:06.225Z,91.30
2022-08-19T02:26:34.310Z,91.40
2022-08-19T02:29:01.669Z,91.40
2022-08-19T02:31:29.265Z,91.40
2022-08-19T02:33:57.733Z,91.50
2022-08-19T02:36:26.618Z,91.50
2022-08-19T02:38:55.655Z,91.40
2022-08-19T02:41:33.683Z,91.30
2022-08-19T02:44:26.378Z,91.30
2022-08-19T02:46:52.646Z,91.20
2022-08-19T02:49:21.176Z,91.10
2022-08-19T02:51:48.931Z,91.10
2022-08-19T02:54:16.486Z,91.30
2022-08-19T02:56:45.766Z,91.30
2022-08-19T02:59:13.345Z,91.20
2022-08-19T03:01:43.149Z,91.40
2022-08-19T03:04:14.375Z,91.30
2022-08-19T03:06:45.848Z,91.30
2022-08-19T03:09:14.189Z,91.30
2022-08-19T03:11:41.835Z,91.40
2022-08-19T03:14:10.831Z,91.30
2022-08-19T03:16:52.111Z,91.40
2022-08-19T03:19:22.328Z,91.50
2022-08-19T03:21:50.458Z,91.40
2022-08-19T03:24:19.812Z,91.50
2022-08-19T03:26:53.255Z,91.60
2022-08-19T03:29:30.218Z,91.50
2022-08-19T03:32:04.854Z,91.60
2022-08-19T03:34:35.611Z,91.40
2022-08-19T03:37:13.317Z,91.40
2022-08-19T03:39:43.110Z,91.30
2022-08-19T03:42:32.808Z,91.40
2022-08-19T03:44:59.727Z,91.40
2022-08-19T03:47:26.795Z,91.50
2022-08-19T03:49:53.839Z,91.60
2022-08-19T03:52:20.997Z,91.70
2022-08-19T03:54:48.287Z,91.80
2022-08-19T03:57:15.622Z,92.00
2022-08-19T03:59:42.758Z,92.00
2022-08-19T04:02:13.192Z,92.00
2022-08-19T04:04:44.540Z,92.10
2022-08-19T04:07:17.148Z,92.20
2022-08-19T04:09:45.157Z,92.20
2022-08-19T04:12:12.286Z,92.30
2022-08-19T04:14:40.478Z,92.20
2022-08-19T04:17:08.105Z,92.10
2022-08-19T04:19:37.569Z,92.30
2022-08-19T04:22:05.809Z,92.40
2022-08-19T04:24:33.716Z,92.30
2022-08-19T04:27:03.641Z,92.50
2022-08-19T04:29:31.336Z,92.50
2022-08-19T04:31:59.769Z,92.60
2022-08-19T04:34:30.606Z,92.50
2022-08-19T04:36:59.873Z,92.60
2022-08-19T04:39:50.466Z,92.60
2022-08-19T04:42:38.051Z,92.60
2022-08-19T04:45:09.496Z,92.70
2022-08-19T04:47:47.780Z,92.60
2022-08-19T04:50:27.465Z,92.80
2022-08-19T04:52:56.572Z,92.80
2022-08-19T04:55:26.561Z,93.10
2022-08-19T04:57:55.230Z,93.20
2022-08-19T05:00:22.853Z,93.30
2022-08-19T05:02:50.339Z,93.30
2022-08-19T05:05:18.434Z,93.30
2022-08-19T05:07:45.660Z,93.40
2022-08-19T05:10:13.813Z,93.60
2022-08-19T05:12:41.110Z,93.60
2022-08-19T05:15:12.217Z,93.50
2022-08-19T05:17:59.265Z,93.50
2022-08-19T05:20:45.337Z,93.50
2022-08-19T05:23:21.906Z,93.60
2022-08-19T05:25:52.637Z,93.60
2022-08-19T05:28:21.503Z,93.70
2022-08-19T05:30:51.546Z,93.70
2022-08-19T05:33:19.925Z,93.80
2022-08-19T05:35:47.224Z,93.70
2022-08-19T05:38:14.397Z,93.80
2022-08-19T05:40:41.541Z,93.90
2022-08-19T05:43:10.009Z,93.90
2022-08-19T05:45:43.003Z,93.90
2022-08-19T05:48:12.875Z,93.90
2022-08-19T05:50:42.691Z,93.90
2022-08-19T05:53:09.991Z,93.80
2022-08-19T05:55:39.625Z,93.80
2022-08-19T05:58:08.632Z,93.70
2022-08-19T06:00:38.575Z,93.70
2022-08-19T06:03:12.695Z,93.80
2022-08-19T06:05:46.243Z,93.80
2022-08-19T06:08:19.736Z,93.70
2022-08-19T06:10:46.949Z,93.70
2022-08-19T06:13:14.067Z,93.80
2022-08-19T06:15:45.364Z,93.70
2022-08-19T06:18:12.755Z,93.60
2022-08-19T06:20:55.640Z,93.50
2022-08-19T06:23:24.311Z,93.40
2022-08-19T06:25:51.690Z,93.30
2022-08-19T06:28:19.152Z,93.20
2022-08-19T06:30:46.475Z,93.20
2022-08-19T06:33:13.671Z,93.10
2022-08-19T06:35:42.727Z,92.90
2022-08-19T06:38:10.663Z,92.80
2022-08-19T06:40:39.192Z,92.80
2022-08-19T06:43:06.616Z,92.60
2022-08-19T06:45:39.770Z,92.60
2022-08-19T06:48:08.414Z,92.50
2022-08-19T06:50:36.676Z,92.50
2022-08-19T06:53:06.860Z,92.40
2022-08-19T06:55:34.157Z,92.40
2022-08-19T06:58:05.624Z,92.40
2022-08-19T07:00:34.550Z,92.30
2022-08-19T07:03:05.982Z,92.20
2022-08-19T07:05:45.635Z,92.30
2022-08-19T07:08:14.845Z,92.20
2022-08-19T07:10:46.780Z,92.10
2022-08-19T07:13:14.566Z,92.00
2022-08-19T07:15:42.438Z,91.90
2022-08-19T07:18:11.873Z,91.80
2022-08-19T07:20:42.055Z,91.80
2022-08-19T07:23:16.020Z,91.80
2022-08-19T07:25:53.218Z,91.60
2022-08-19T07:28:24.242Z,91.50
2022-08-19T07:30:53.805Z,91.40
2022-08-19T07:33:27.911Z,91.20
2022-08-19T07:35:56.841Z,91.00
2022-08-19T07:38:24.061Z,90.60
2022-08-19T07:40:55.170Z,90.60
2022-08-19T07:43:35.013Z,90.60
2022-08-19T07:46:16.054Z,90.40
2022-08-19T07:48:48.544Z,90.40
2022-08-19T07:51:36.197Z,90.40
2022-08-19T07:54:05.165Z,90.30
2022-08-19T07:56:32.968Z,90.40
2022-08-19T07:59:01.453Z,90.10
2022-08-19T08:01:29.573Z,89.80
2022-08-19T08:04:17.893Z,89.40
2022-08-19T08:07:05.465Z,88.10
2022-08-19T08:09:44.510Z,87.90
2022-08-19T08:12:40.647Z,88.00
2022-08-19T08:15:17.459Z,87.10
2022-08-19T08:17:51.435Z,86.70
2022-08-19T08:20:25.611Z,86.50
2022-08-19T08:25:45.270Z,86.50
2022-08-19T08:28:18.535Z,86.50
2022-08-19T08:30:52.052Z,86.80
2022-08-19T08:33:33.786Z,87.10
2022-08-19T08:44:17.298Z,85.60
2022-08-19T08:46:56.370Z,84.30
2022-08-19T08:52:37.870Z,85.20
2022-08-19T08:55:39.267Z,84.00
2022-08-19T09:01:14.983Z,81.40
2022-08-19T09:06:27.370Z,79.60
2022-08-19T09:12:57.642Z,76.80
2022-08-19T09:15:57.955Z,74.90
2022-08-19T09:18:31.084Z,73.70
2022-08-19T09:21:00.302Z,71.90
2022-08-19T09:23:33.366Z,72.00
2022-08-19T09:26:16.569Z,71.60
2022-08-19T09:28:49.764Z,70.50
2022-08-19T09:36:35.360Z,69.60
2022-08-19T09:39:14.862Z,70.30
2022-08-19T09:41:56.679Z,70.30
2022-08-19T09:44:27.994Z,70.50
2022-08-19T09:46:55.145Z,70.20
2022-08-19T09:49:24.818Z,70.00
2022-08-19T09:51:57.115Z,70.10
2022-08-19T09:54:25.421Z,69.80
2022-08-19T09:56:55.546Z,69.30
2022-08-19T09:59:23.025Z,69.60
2022-08-19T10:01:51.993Z,68.80
2022-08-19T10:04:19.988Z,69.50
2022-08-19T10:06:53.433Z,69.10
2022-08-19T10:09:26.381Z,69.10
2022-08-19T10:12:04.660Z,67.60
2022-08-19T10:14:34.072Z,67.20
2022-08-19T10:17:04.588Z,67.10
2022-08-19T10:19:55.208Z,67.40
2022-08-19T10:22:23.486Z,66.50
2022-08-19T10:24:53.825Z,66.90
2022-08-19T10:27:21.661Z,66.50
2022-08-19T10:29:49.404Z,66.40
2022-08-19T10:32:16.601Z,65.50
2022-08-19T10:34:48.418Z,65.50
2022-08-19T10:37:29.060Z,65.90
2022-08-19T10:39:58.993Z,65.50
2022-08-19T10:42:26.202Z,65.70
2022-08-19T10:44:53.408Z,65.40
2022-08-19T10:47:25.451Z,65.70
2022-08-19T10:50:15.495Z,65.40
2022-08-19T10:55:50.188Z,65.30
2022-08-19T10:58:27.340Z,64.70
2022-08-19T11:01:06.021Z,64.20
2022-08-19T11:06:13.982Z,64.40
2022-08-19T11:08:43.094Z,65.10
2022-08-19T11:11:10.420Z,64.00
2022-08-19T11:13:41.329Z,63.90
2022-08-19T11:16:14.922Z,64.90
2022-08-19T11:18:50.671Z,64.10
2022-08-19T11:21:22.083Z,63.90
2022-08-19T11:23:53.437Z,63.80
2022-08-19T11:26:24.370Z,62.70
2022-08-19T11:28:55.386Z,63.40
2022-08-19T11:31:28.892Z,62.90
2022-08-19T11:34:03.581Z,62.90
2022-08-19T11:36:33.430Z,62.60
2022-08-19T11:39:01.886Z,62.90
2022-08-19T11:41:29.209Z,63.30
2022-08-19T11:43:56.943Z,63.10
2022-08-19T11:46:30.437Z,63.30
2022-08-19T11:49:00.534Z,63.50
2022-08-19T11:51:28.963Z,63.70
2022-08-19T11:53:58.627Z,64.70
2022-08-19T11:56:27.836Z,63.80
2022-08-19T11:58:57.754Z,63.50
2022-08-19T12:01:27.411Z,63.20
2022-08-19T12:03:57.632Z,64.10
2022-08-19T12:06:33.497Z,62.20
2022-08-19T12:09:06.747Z,62.80
2022-08-19T12:11:35.000Z,62.10
2022-08-19T12:14:02.620Z,62.10
2022-08-19T12:16:32.915Z,62.10
2022-08-19T12:19:04.892Z,61.90
2022-08-19T12:21:35.466Z,62.60
2022-08-19T12:24:06.215Z,62.10
2022-08-19T12:26:34.359Z,62.10
2022-08-19T12:29:23.376Z,61.80
2022-08-19T12:31:52.394Z,61.60
2022-08-19T12:34:21.164Z,61.40
2022-08-19T12:36:50.428Z,61.20
2022-08-19T12:39:17.973Z,61.20
2022-08-19T12:41:53.972Z,61.20
2022-08-19T12:44:28.847Z,61.60
2022-08-19T12:46:56.620Z,61.30
2022-08-19T12:49:34.393Z,61.10
2022-08-19T12:52:11.855Z,61.40
2022-08-19T12:54:41.368Z,60.20
2022-08-19T12:57:10.583Z,60.60
2022-08-19T12:59:39.162Z,59.80
2022-08-19T13:02:08.702Z,59.80
2022-08-19T13:04:38.907Z,60.00
2022-08-19T13:07:06.379Z,59.40
2022-08-19T13:09:33.482Z,59.80
2022-08-19T13:12:03.648Z,59.70
2022-08-19T13:14:32.964Z,59.60
2022-08-19T13:17:01.075Z,59.80
2022-08-19T13:19:28.229Z,59.40
2022-08-19T13:22:00.186Z,58.90
2022-08-19T13:24:31.420Z,59.20
2022-08-19T13:27:04.379Z,58.70
2022-08-19T13:29:50.020Z,58.80
2022-08-19T13:32:35.590Z,58.00
2022-08-19T13:35:04.264Z,58.20
2022-08-19T13:37:43.802Z,58.10
2022-08-19T13:40:23.898Z,58.10
2022-08-19T13:42:55.475Z,58.20
2022-08-19T13:45:27.023Z,58.40
2022-08-19T13:47:59.687Z,57.40
2022-08-19T13:50:30.242Z,58.00
2022-08-19T13:52:58.114Z,58.00
2022-08-19T13:55:27.752Z,57.40
2022-08-19T13:57:58.842Z,56.50
2022-08-19T14:00:30.381Z,57.00
2022-08-19T14:02:58.769Z,56.80
2022-08-19T14:05:29.585Z,56.50
2022-08-19T14:07:57.735Z,56.70
2022-08-19T14:10:26.633Z,56.60
2022-08-19T14:13:00.033Z,56.60
2022-08-19T14:15:29.038Z,56.10
2022-08-19T14:17:57.209Z,56.30
2022-08-19T14:20:25.882Z,56.30
2022-08-19T14:22:55.809Z,57.00
2022-08-19T14:25:27.488Z,56.60
2022-08-19T14:27:55.831Z,56.40
2022-08-19T14:30:31.286Z,56.00
2022-08-19T14:33:01.572Z,55.60
2022-08-19T14:35:30.890Z,55.30
2022-08-19T14:37:59.056Z,55.40
2022-08-19T14:40:30.549Z,55.50
2022-08-19T14:43:05.162Z,55.70
2022-08-19T14:45:38.604Z,55.70
2022-08-19T14:48:19.030Z,56.30
2022-08-19T14:50:46.833Z,54.70
2022-08-19T14:53:14.122Z,54.70
2022-08-19T14:55:46.855Z,54.50
2022-08-19T14:58:28.430Z,54.00
2022-08-19T15:01:00.603Z,54.50
2022-08-19T15:03:29.658Z,54.60
2022-08-19T15:05:58.849Z,53.60
2022-08-19T15:08:27.795Z,53.90
2022-08-19T15:10:55.316Z,53.90
2022-08-19T15:13:23.266Z,53.40
2022-08-19T15:15:50.424Z,52.50
2022-08-19T15:18:17.548Z,52.30
2022-08-19T15:20:46.726Z,52.30
2022-08-19T15:23:15.867Z,52.70
2022-08-19T15:25:44.438Z,52.60
2022-08-19T15:28:12.833Z,52.00
2022-08-19T15:30:42.024Z,51.50
2022-08-19T15:33:10.972Z,50.60
2022-08-19T15:35:39.697Z,50.40
2022-08-19T15:38:07.830Z,51.10
2022-08-19T15:40:35.533Z,49.90
2022-08-19T15:43:02.779Z,50.10
2022-08-19T15:45:32.929Z,49.90
2022-08-19T15:48:02.991Z,49.70
2022-08-19T15:50:34.185Z,49.00
2022-08-19T15:53:09.670Z,49.10
2022-08-19T15:55:44.762Z,49.60
2022-08-19T15:58:34.218Z,48.90
2022-08-19T16:01:26.921Z,49.10
2022-08-19T16:04:16.449Z,48.70
2022-08-19T16:06:57.117Z,48.10
2022-08-19T16:09:30.412Z,48.50
2022-08-19T16:12:04.951Z,48.70
2022-08-19T16:14:38.197Z,48.70
2022-08-19T16:17:05.746Z,49.00
2022-08-19T16:19:33.386Z,49.40
2022-08-19T16:22:00.585Z,49.80
2022-08-19T16:24:29.782Z,49.90
2022-08-19T16:26:57.459Z,50.30
2022-08-19T16:29:33.923Z,50.60
2022-08-19T16:32:11.523Z,50.90
2022-08-19T16:34:42.805Z,51.20
2022-08-19T16:37:10.663Z,51.20
2022-08-19T16:39:39.081Z,51.00
2022-08-19T16:42:09.137Z,51.10
2022-08-19T16:44:41.005Z,51.20
2022-08-19T16:47:08.380Z,51.50
2022-08-19T16:49:54.330Z,51.30
2022-08-19T16:52:26.315Z,50.60
2022-08-19T16:54:54.422Z,50.70
2022-08-19T16:57:23.892Z,50.60
2022-08-19T16:59:52.414Z,50.50
2022-08-19T17:02:23.520Z,51.00
2022-08-19T17:04:57.792Z,50.70
2022-08-19T17:07:32.211Z,51.10
2022-08-19T17:10:03.063Z,51.50
2022-08-19T17:12:32.357Z,51.00
2022-08-19T17:15:02.641Z,51.00
2022-08-19T17:17:31.401Z,50.80
2022-08-19T17:20:00.543Z,51.00
2022-08-19T17:22:28.060Z,51.30
2022-08-19T17:24:56.446Z,51.50
2022-08-19T17:27:31.369Z,51.80
2022-08-19T17:30:01.074Z,52.00
2022-08-19T17:32:28.414Z,52.00
2022-08-19T17:34:55.640Z,51.80
2022-08-19T17:37:23.423Z,52.10
2022-08-19T17:39:50.628Z,52.00
2022-08-19T17:42:17.765Z,52.30
2022-08-19T17:44:50.494Z,52.20
2022-08-19T17:47:19.445Z,52.30
2022-08-19T17:49:47.082Z,52.40
2022-08-19T17:52:14.648Z,52.40
2022-08-19T17:54:41.915Z,52.40
2022-08-19T17:57:09.656Z,52.40
2022-08-19T17:59:37.657Z,52.80
2022-08-19T18:02:07.681Z,53.00
2022-08-19T18:04:38.482Z,52.80
2022-08-19T18:07:06.419Z,52.80
2022-08-19T18:09:41.447Z,53.10
2022-08-19T18:12:13.192Z,53.00
2022-08-19T18:14:42.181Z,53.10
2022-08-19T18:17:18.091Z,53.30
2022-08-19T18:19:47.720Z,53.60
2022-08-19T18:22:30.698Z,53.50
2022-08-19T18:24:59.360Z,53.60
2022-08-19T18:27:27.832Z,53.70
2022-08-19T18:29:59.262Z,54.00
2022-08-19T18:32:34.379Z,54.00
2022-08-19T18:35:11.287Z,54.20
2022-08-19T18:37:43.665Z,54.40
2022-08-19T18:40:37.867Z,54.50
2022-08-19T18:43:11.603Z,54.80
2022-08-19T18:46:01.449Z,55.10
2022-08-19T18:48:47.877Z,55.60
2022-08-19T18:51:17.934Z,56.00
2022-08-19T18:53:48.564Z,56.10
2022-08-19T18:56:19.892Z,56.10
2022-08-19T18:58:47.397Z,56.30
2022-08-19T19:01:25.098Z,56.60
2022-08-19T19:03:54.720Z,56.70
2022-08-19T19:06:41.335Z,57.00
2022-08-19T19:09:18.005Z,57.30
2022-08-19T19:11:51.684Z,57.40
2022-08-19T19:14:48.667Z,57.50
2022-08-19T19:17:17.057Z,57.80
2022-08-19T19:19:44.868Z,58.10
2022-08-19T19:22:20.214Z,58.40
2022-08-19T19:24:47.392Z,58.80
2022-08-19T19:27:18.609Z,58.60
2022-08-19T19:29:49.682Z,58.90
2022-08-19T19:32:29.554Z,59.00
2022-08-19T19:34:57.136Z,59.30
2022-08-19T19:37:24.321Z,59.40
2022-08-19T19:39:52.537Z,59.40
2022-08-19T19:42:24.303Z,59.60
2022-08-19T19:44:55.241Z,59.90
2022-08-19T19:47:24.584Z,60.00
2022-08-19T19:50:13.218Z,59.70
2022-08-19T19:52:40.953Z,59.90
2022-08-19T19:55:09.929Z,60.40
2022-08-19T19:57:39.401Z,61.00
2022-08-19T20:00:09.241Z,61.30
2022-08-19T20:02:36.414Z,61.20
2022-08-19T20:05:04.182Z,61.20
2022-08-19T20:07:49.551Z,61.50
2022-08-19T20:10:16.843Z,61.80
2022-08-19T20:12:44.242Z,61.90
2022-08-19T20:15:11.329Z,61.80
2022-08-19T20:17:42.714Z,61.60
2022-08-19T20:20:13.362Z,61.30
2022-08-19T20:22:43.368Z,61.40
2022-08-19T20:25:12.901Z,61.50
2022-08-19T20:27:41.505Z,61.50
2022-08-19T20:30:19.132Z,61.60
2022-08-19T20:32:49.180Z,61.60
2022-08-19T20:35:20.537Z,61.90
2022-08-19T20:37:48.461Z,62.10
2022-08-19T20:40:20.308Z,62.10
2022-08-19T20:42:50.690Z,62.10
2022-08-19T20:45:32.710Z,62.30
2022-08-19T20:48:03.501Z,62.40
2022-08-19T20:50:36.215Z,62.50
2022-08-19T20:53:16.843Z,63.10
2022-08-19T20:55:49.262Z,63.30
2022-08-19T20:58:23.394Z,63.10
2022-08-19T21:00:54.226Z,63.80
2022-08-19T21:03:27.356Z,63.70
2022-08-19T21:05:55.911Z,63.80
2022-08-19T21:08:25.530Z,64.00
2022-08-19T21:10:54.607Z,64.70
2022-08-19T21:13:23.340Z,65.10
2022-08-19T21:15:51.592Z,65.30
2022-08-19T21:18:21.395Z,65.00
2022-08-19T21:20:50.254Z,64.90
2022-08-19T21:23:28.860Z,65.10
2022-08-19T21:25:59.174Z,65.70
2022-08-19T21:28:29.905Z,65.30
2022-08-19T21:31:06.632Z,65.70
2022-08-19T21:33:34.184Z,66.10
2022-08-19T21:36:01.639Z,66.50
2022-08-19T21:38:29.285Z,66.70
2022-08-19T21:40:56.751Z,67.20
2022-08-19T21:43:24.827Z,67.60
2022-08-19T21:45:51.972Z,67.10
2022-08-19T21:48:19.736Z,66.60
2022-08-19T21:50:48.477Z,66.40
2022-08-19T21:53:19.558Z,66.80
2022-08-19T21:55:53.579Z,67.80
2022-08-19T21:58:28.097Z,68.60
2022-08-19T22:00:59.335Z,68.70
2022-08-19T22:03:27.642Z,68.30
2022-08-19T22:05:54.789Z,67.80
2022-08-19T22:08:22.758Z,67.40
2022-08-19T22:10:50.223Z,67.00
2022-08-19T22:13:18.405Z,66.90
2022-08-19T22:15:46.662Z,67.40
2022-08-19T22:18:13.837Z,67.70
2022-08-19T22:20:42.064Z,68.20
2022-08-19T22:23:09.436Z,67.40
2022-08-19T22:25:45.696Z,67.80
2022-08-19T22:28:18.724Z,67.30
2022-08-19T22:30:51.088Z,67.10
2022-08-19T22:33:22.704Z,67.10
2022-08-19T22:35:53.162Z,66.90
2022-08-19T22:38:20.475Z,67.20
2022-08-19T22:40:50.046Z,67.90
2022-08-19T22:43:26.155Z,69.30
2022-08-19T22:45:55.667Z,68.60
2022-08-19T22:48:28.785Z,69.00
2022-08-19T22:51:15.760Z,69.30
2022-08-19T22:53:46.712Z,69.60
2022-08-19T22:56:18.220Z,69.80
2022-08-19T22:58:47.234Z,70.20
2022-08-19T23:01:27.264Z,70.40
2022-08-19T23:03:59.056Z,70.40
2022-08-19T23:06:33.295Z,69.90
2022-08-19T23:09:04.669Z,69.50
2022-08-19T23:11:38.030Z,69.50
2022-08-19T23:14:06.173Z,69.40
2022-08-19T23:16:36.017Z,69.30
2022-08-19T23:19:04.575Z,69.40
2022-08-19T23:21:31.719Z,70.50
2022-08-19T23:23:58.995Z,70.90
2022-08-19T23:26:26.197Z,71.50
2022-08-19T23:29:11.817Z,72.60
2022-08-19T23:31:38.964Z,72.40
2022-08-19T23:34:06.115Z,71.50
2022-08-19T23:36:33.216Z,71.20
2022-08-19T23:39:00.926Z,70.90
2022-08-19T23:41:28.540Z,71.20
2022-08-19T23:43:55.919Z,72.20
2022-08-19T23:46:27.467Z,72.50
2022-08-19T23:48:56.694Z,72.80
2022-08-19T23:51:24.653Z,73.20
2022-08-19T23:53:51.815Z,72.80
2022-08-19T23:56:18.966Z,72.90
2022-08-19T23:58:49.227Z,73.20
